Time;durP1;ratioP1;P1;durP2;ratioP2;P2;SDS_P1;SDS_P2;PMS_P1;PMS_P2;Temp;Humidity;BMP_temperature;BMP_pressure;BME280_temperature;BME280_humidity;BME280_pressure;Samples;Min_cycle;Max_cycle;Signal;HPM_P1;HPM_P2
2021/12/04 00:00:01;;;;;;;0.40;0.40;;;6.40;99.90;;;;;;5010974;28;20280;-64
2021/12/04 00:02:28;;;;;;;0.50;0.50;;;6.30;99.90;;;;;;5015258;28;20896;-66
2021/12/04 00:04:56;;;;;;;0.30;0.30;;;6.30;99.90;;;;;;5023991;28;20236;-65
2021/12/04 00:07:23;;;;;;;0.47;0.47;;;6.30;99.90;;;;;;5014370;28;20220;-66
2021/12/04 00:09:57;;;;;;;0.50;0.50;;;6.20;99.90;;;;;;5013719;28;20210;-64
2021/12/04 00:12:24;;;;;;;0.40;0.40;;;6.20;99.90;;;;;;5014551;28;20288;-66
2021/12/04 00:14:51;;;;;;;0.90;0.90;;;6.20;99.90;;;;;;5013653;28;20264;-64
2021/12/04 00:17:19;;;;;;;0.67;0.67;;;6.20;99.90;;;;;;5008312;28;20260;-64
2021/12/04 00:19:46;;;;;;;0.60;0.60;;;6.20;99.90;;;;;;5011309;28;20267;-65
2021/12/04 00:22:13;;;;;;;0.30;0.30;;;6.20;99.90;;;;;;5014308;28;20606;-65
2021/12/04 00:24:40;;;;;;;0.57;0.57;;;6.20;99.90;;;;;;5007440;28;20289;-65
2021/12/04 00:27:07;;;;;;;0.50;0.50;;;6.20;99.90;;;;;;5006519;28;20312;-65
2021/12/04 00:29:34;;;;;;;0.40;0.40;;;6.20;99.90;;;;;;5000436;28;20206;-65
2021/12/04 00:32:03;;;;;;;0.57;0.57;;;6.30;99.90;;;;;;5006804;28;20317;-66
2021/12/04 00:34:34;;;;;;;0.50;0.50;;;6.30;99.90;;;;;;4999155;28;20256;-65
2021/12/04 00:37:10;;;;;;;0.40;0.40;;;6.30;99.90;;;;;;5011300;28;20573;-64
2021/12/04 00:50:37;;;;;;;0.37;0.37;;;6.30;99.90;;;;;;5013082;28;20375;-65
2021/12/04 00:53:04;;;;;;;0.20;0.20;;;6.50;99.90;;;;;;5010200;28;20237;-64
2021/12/04 00:55:31;;;;;;;0.30;0.30;;;6.40;99.90;;;;;;5012844;28;20791;-65
2021/12/04 00:57:58;;;;;;;0.33;0.33;;;6.30;99.90;;;;;;5008319;28;20296;-66
2021/12/04 01:00:25;;;;;;;0.40;0.40;;;6.30;99.90;;;;;;4999949;28;20234;-66
2021/12/04 01:02:52;;;;;;;0.53;0.53;;;6.20;99.90;;;;;;5013298;28;20651;-64
2021/12/04 01:05:19;;;;;;;0.40;0.40;;;6.30;99.90;;;;;;5003431;28;20600;-64
2021/12/04 01:07:48;;;;;;;0.50;0.50;;;6.20;99.90;;;;;;5011322;28;20296;-65
2021/12/04 01:10:15;;;;;;;0.50;0.50;;;6.20;99.90;;;;;;5009755;28;20209;-66
2021/12/04 01:12:42;;;;;;;0.57;0.57;;;6.30;99.90;;;;;;5011547;28;20213;-66
2021/12/04 01:15:10;;;;;;;0.50;0.50;;;6.30;99.90;;;;;;5014862;28;20221;-64
2021/12/04 01:17:37;;;;;;;0.70;0.70;;;6.30;99.90;;;;;;5020775;28;20269;-65
2021/12/04 01:20:05;;;;;;;0.53;0.53;;;6.30;99.90;;;;;;5027835;28;20201;-65
2021/12/04 01:22:33;;;;;;;0.40;0.40;;;6.40;99.90;;;;;;5034525;28;20193;-65
2021/12/04 01:25:09;;;;;;;0.30;0.30;;;6.40;99.90;;;;;;5033385;28;20224;-64
2021/12/04 01:27:37;;;;;;;0.40;0.40;;;6.40;99.90;;;;;;5038540;28;20239;-64
2021/12/04 01:30:04;;;;;;;0.63;0.50;;;6.30;99.90;;;;;;5028198;28;20202;-64
2021/12/04 01:32:31;;;;;;;0.40;0.40;;;6.40;99.90;;;;;;5025139;28;20667;-66
2021/12/04 01:34:59;;;;;;;0.30;0.30;;;6.40;99.90;;;;;;5016039;28;20193;-64
2021/12/04 01:37:26;;;;;;;0.30;0.30;;;6.40;99.90;;;;;;5020802;28;20229;-65
2021/12/04 01:39:53;;;;;;;0.30;0.30;;;6.40;99.90;;;;;;5009848;28;20241;-66
2021/12/04 01:42:21;;;;;;;0.30;0.30;;;6.50;99.90;;;;;;5008920;28;20201;-66
2021/12/04 01:44:49;;;;;;;0.20;0.20;;;6.40;99.90;;;;;;5025946;28;20205;-65
2021/12/04 01:47:19;;;;;;;0.27;0.27;;;6.50;99.90;;;;;;5035363;28;20233;-64
2021/12/04 01:49:48;;;;;;;0.40;0.40;;;6.50;99.90;;;;;;5016192;28;20252;-65
2021/12/04 01:52:17;;;;;;;0.40;0.40;;;6.50;99.90;;;;;;5030301;28;20276;-66
2021/12/04 01:54:44;;;;;;;0.50;0.50;;;6.50;99.90;;;;;;5021164;28;20201;-67
2021/12/04 01:57:14;;;;;;;0.23;0.23;;;6.50;99.90;;;;;;5010732;28;20237;-65
2021/12/04 01:59:43;;;;;;;0.40;0.40;;;6.60;99.90;;;;;;5011019;28;20225;-66
2021/12/04 02:02:10;;;;;;;0.53;0.53;;;6.60;99.90;;;;;;5023719;28;20232;-66
2021/12/04 02:04:37;;;;;;;0.33;0.33;;;6.60;99.90;;;;;;5013925;28;20735;-66
2021/12/04 02:07:05;;;;;;;0.70;0.70;;;6.70;99.90;;;;;;5012691;28;20233;-65
2021/12/04 02:09:32;;;;;;;1.13;1.13;;;6.70;99.90;;;;;;5009927;28;20289;-64
2021/12/04 02:11:59;;;;;;;0.60;0.60;;;6.80;99.90;;;;;;5013010;28;20304;-66
2021/12/04 02:14:26;;;;;;;0.50;0.50;;;6.80;99.90;;;;;;5019493;28;20225;-66
2021/12/04 02:16:54;;;;;;;0.53;0.53;;;6.80;99.90;;;;;;5012460;28;20267;-65
2021/12/04 02:19:21;;;;;;;0.50;0.50;;;6.80;99.90;;;;;;5004366;28;20391;-66
2021/12/04 02:21:50;;;;;;;0.70;0.70;;;6.80;99.90;;;;;;5006845;28;20970;-66
2021/12/04 02:24:16;;;;;;;0.60;0.60;;;6.80;99.90;;;;;;5007130;28;20213;-65
2021/12/04 02:26:46;;;;;;;0.47;0.47;;;6.90;99.90;;;;;;5006107;28;20260;-66
2021/12/04 02:29:13;;;;;;;0.70;0.70;;;6.90;99.90;;;;;;5003408;28;20240;-65
2021/12/04 02:31:40;;;;;;;0.60;0.60;;;6.90;99.90;;;;;;5009387;28;20221;-65
2021/12/04 02:34:07;;;;;;;0.33;0.33;;;6.90;99.90;;;;;;5011987;28;20244;-65
2021/12/04 02:36:34;;;;;;;0.50;0.50;;;7.00;99.90;;;;;;5007067;28;20742;-66
2021/12/04 02:39:02;;;;;;;0.40;0.40;;;6.90;99.90;;;;;;5008313;28;20584;-66
2021/12/04 02:41:29;;;;;;;0.30;0.30;;;7.10;99.90;;;;;;5003267;28;20194;-66
2021/12/04 02:43:56;;;;;;;0.40;0.40;;;7.10;99.90;;;;;;5007314;28;20201;-67
2021/12/04 02:46:23;;;;;;;0.53;0.53;;;7.00;99.90;;;;;;5008497;28;20319;-66
2021/12/04 02:48:50;;;;;;;0.60;0.60;;;7.00;99.90;;;;;;5005744;28;20747;-66
2021/12/04 02:51:19;;;;;;;0.60;0.60;;;7.10;99.90;;;;;;5014125;28;20319;-66
2021/12/04 02:53:45;;;;;;;0.50;0.50;;;7.10;99.90;;;;;;5006106;28;20229;-67
2021/12/04 02:56:14;;;;;;;0.40;0.40;;;7.10;99.90;;;;;;5012468;28;20249;-67
2021/12/04 02:58:44;;;;;;;0.30;0.30;;;7.10;99.90;;;;;;5005322;28;20225;-65
2021/12/04 03:01:11;;;;;;;0.27;0.27;;;7.10;99.90;;;;;;5006724;28;20580;-66
2021/12/04 03:03:38;;;;;;;0.53;0.33;;;7.10;99.90;;;;;;5013971;28;20205;-65
2021/12/04 03:06:05;;;;;;;0.40;0.40;;;7.10;99.90;;;;;;5007354;28;20795;-66
2021/12/04 03:08:32;;;;;;;0.20;0.20;;;7.10;99.90;;;;;;5006123;28;20233;-66
2021/12/04 03:10:59;;;;;;;0.30;0.30;;;7.20;99.90;;;;;;5006078;28;20683;-65
2021/12/04 03:13:27;;;;;;;0.40;0.40;;;7.10;99.90;;;;;;5012088;28;20295;-65
2021/12/04 03:15:59;;;;;;;0.40;0.40;;;7.30;99.90;;;;;;5005434;28;20669;-65
2021/12/04 03:18:27;;;;;;;0.30;0.30;;;7.20;99.90;;;;;;5010723;28;20240;-65
2021/12/04 03:20:55;;;;;;;0.50;0.50;;;7.20;99.90;;;;;;5000522;28;20232;-66
2021/12/04 03:23:28;;;;;;;0.50;0.50;;;7.30;99.90;;;;;;5000932;28;20297;-65
2021/12/04 03:25:57;;;;;;;1.03;1.03;;;7.30;99.90;;;;;;5027704;28;20225;-66
2021/12/04 03:28:24;;;;;;;0.70;0.70;;;7.30;99.90;;;;;;5030888;28;20201;-65
2021/12/04 03:30:57;;;;;;;0.40;0.40;;;7.40;99.90;;;;;;5010861;28;20210;-65
2021/12/04 03:41:37;;;;;;;0.53;0.53;;;7.30;99.90;;;;;;5000059;28;20676;-67
2021/12/04 03:44:04;;;;;;;0.60;0.60;;;7.40;99.90;;;;;;5002490;28;20201;-65
2021/12/04 03:46:32;;;;;;;0.40;0.40;;;7.40;99.90;;;;;;5008651;28;20297;-66
2021/12/04 03:48:59;;;;;;;0.40;0.40;;;7.50;99.90;;;;;;5008366;28;20206;-65
2021/12/04 03:51:26;;;;;;;0.50;0.50;;;7.50;99.90;;;;;;5004439;28;20268;-66
2021/12/04 03:53:53;;;;;;;0.80;0.80;;;7.50;99.90;;;;;;5002590;28;20296;-65
2021/12/04 03:56:24;;;;;;;0.47;0.47;;;7.50;99.90;;;;;;5002974;28;20253;-66
2021/12/04 03:58:51;;;;;;;0.20;0.20;;;7.60;99.90;;;;;;5003806;28;20210;-65
2021/12/04 04:01:18;;;;;;;0.47;0.47;;;7.60;99.90;;;;;;5000432;28;20389;-67
2021/12/04 04:03:46;;;;;;;0.47;0.47;;;7.60;99.90;;;;;;5003489;28;20289;-66
2021/12/04 04:06:13;;;;;;;0.50;0.50;;;7.60;99.90;;;;;;5030032;23;20225;-61
2021/12/04 04:08:40;;;;;;;0.60;0.60;;;7.70;99.90;;;;;;5005288;28;20205;-60
2021/12/04 04:11:07;;;;;;;0.77;0.77;;;7.70;99.90;;;;;;5009707;28;20213;-60
2021/12/04 04:13:36;;;;;;;0.80;0.80;;;7.70;99.90;;;;;;5011616;28;20567;-60
2021/12/04 04:16:04;;;;;;;0.83;0.83;;;7.80;99.90;;;;;;5006829;28;20609;-61
2021/12/04 04:18:32;;;;;;;0.60;0.60;;;7.90;99.90;;;;;;4999312;28;20210;-62
2021/12/04 04:21:01;;;;;;;0.20;0.20;;;7.90;99.90;;;;;;4992407;28;20236;-59
2021/12/04 04:23:28;;;;;;;0.30;0.30;;;7.90;99.90;;;;;;5006368;28;20198;-60
2021/12/04 04:25:55;;;;;;;0.30;0.30;;;7.90;99.90;;;;;;5007561;28;20296;-60
2021/12/04 04:28:23;;;;;;;0.40;0.40;;;7.90;99.90;;;;;;5005657;28;20621;-63
2021/12/04 04:30:50;;;;;;;0.30;0.30;;;7.90;99.90;;;;;;5002233;28;20241;-59
2021/12/04 04:33:17;;;;;;;0.27;0.27;;;7.90;99.90;;;;;;5000942;28;20229;-60
2021/12/04 04:35:47;;;;;;;0.70;0.70;;;8.00;99.90;;;;;;5004367;28;20264;-60
2021/12/04 04:38:24;;;;;;;0.40;0.40;;;8.00;99.90;;;;;;5006556;28;20208;-60
2021/12/04 04:57:59;;;;;;;0.40;0.40;;;8.10;99.90;;;;;;4951384;28;20224;-60
2021/12/04 05:00:51;;;;;;;0.60;0.60;;;8.10;99.90;;;;;;5000325;28;20292;-60
2021/12/04 05:11:39;;;;;;;0.20;0.20;;;8.20;99.90;;;;;;4974374;28;20202;-59
2021/12/04 05:14:06;;;;;;;0.43;0.43;;;8.20;99.90;;;;;;5009351;28;20309;-59
2021/12/04 05:16:44;;;;;;;0.70;0.70;;;8.20;99.90;;;;;;5002444;28;20225;-61
2021/12/04 05:19:26;;;;;;;0.50;0.50;;;8.30;99.90;;;;;;5007045;28;20201;-61
2021/12/04 05:21:53;;;;;;;0.50;0.50;;;8.40;99.90;;;;;;5006079;28;20276;-60
2021/12/04 05:24:20;;;;;;;0.40;0.40;;;8.30;99.90;;;;;;5008271;28;20211;-62
2021/12/04 05:26:48;;;;;;;0.30;0.30;;;8.40;99.90;;;;;;5004704;28;20807;-60
2021/12/04 05:29:15;;;;;;;0.50;0.50;;;8.40;99.90;;;;;;4999632;28;20637;-59
2021/12/04 05:31:42;;;;;;;0.40;0.40;;;8.40;99.90;;;;;;5000678;28;20297;-60
2021/12/04 05:34:09;;;;;;;0.50;0.50;;;8.50;99.90;;;;;;5005103;28;20728;-60
2021/12/04 05:36:37;;;;;;;0.30;0.30;;;8.50;99.90;;;;;;5003111;28;20231;-61
2021/12/04 05:39:04;;;;;;;0.40;0.40;;;8.50;99.90;;;;;;5006384;28;20292;-62
2021/12/04 05:41:31;;;;;;;0.40;0.40;;;8.50;99.90;;;;;;4994806;28;20238;-60
2021/12/04 05:44:04;;;;;;;0.53;0.40;;;8.60;99.90;;;;;;4989547;28;20256;-60
2021/12/04 05:46:36;;;;;;;0.40;0.40;;;8.60;99.90;;;;;;5001316;28;20228;-60
2021/12/04 05:49:07;;;;;;;0.60;0.60;;;8.60;99.90;;;;;;4991641;28;20731;-60
2021/12/04 05:51:50;;;;;;;0.60;0.60;;;8.60;99.90;;;;;;5002966;28;20209;-61
2021/12/04 05:54:33;;;;;;;0.60;0.60;;;8.60;99.90;;;;;;4999540;28;20293;-60
2021/12/04 05:57:00;;;;;;;0.50;0.50;;;8.60;99.90;;;;;;5003149;28;20261;-60
2021/12/04 05:59:29;;;;;;;0.30;0.30;;;8.60;99.90;;;;;;5006310;28;20212;-60
2021/12/04 06:01:56;;;;;;;0.40;0.40;;;8.60;99.90;;;;;;5001209;28;20198;-60
2021/12/04 06:04:24;;;;;;;1.00;1.00;;;8.60;99.90;;;;;;4993533;28;20739;-61
2021/12/04 06:06:51;;;;;;;0.80;0.80;;;8.60;99.90;;;;;;5003123;28;20324;-60
2021/12/04 06:09:18;;;;;;;1.00;1.00;;;8.60;99.90;;;;;;5001884;28;20301;-60
2021/12/04 06:11:45;;;;;;;0.70;0.70;;;8.70;99.90;;;;;;5005521;28;20244;-62
2021/12/04 06:14:12;;;;;;;0.70;0.70;;;8.70;99.90;;;;;;4993318;28;20285;-60
2021/12/04 06:16:40;;;;;;;0.80;0.80;;;8.70;99.90;;;;;;5000407;28;20317;-59
2021/12/04 06:19:12;;;;;;;0.60;0.60;;;8.70;99.90;;;;;;4998611;28;20758;-60
2021/12/04 06:24:28;;;;;;;0.67;0.67;;;8.70;99.90;;;;;;4988418;28;20671;-60
2021/12/04 06:26:55;;;;;;;0.80;0.80;;;8.80;99.90;;;;;;5004007;28;20308;-60
2021/12/04 06:29:24;;;;;;;0.57;0.57;;;8.70;99.90;;;;;;5004687;28;20237;-60
2021/12/04 06:31:52;;;;;;;0.60;0.60;;;8.80;99.90;;;;;;4998872;28;20249;-60
2021/12/04 06:34:19;;;;;;;0.50;0.50;;;8.90;99.90;;;;;;5002015;28;20296;-61
2021/12/04 06:36:46;;;;;;;0.43;0.43;;;8.90;99.90;;;;;;5001836;28;20221;-61
2021/12/04 06:39:13;;;;;;;0.30;0.30;;;8.90;99.90;;;;;;5004568;28;20209;-60
2021/12/04 06:41:41;;;;;;;0.30;0.30;;;8.90;99.90;;;;;;5003721;28;20281;-61
2021/12/04 06:44:07;;;;;;;0.60;0.60;;;8.90;99.90;;;;;;4991626;28;20289;-61
2021/12/04 06:46:35;;;;;;;0.63;0.63;;;8.90;99.90;;;;;;5002712;28;20317;-60
2021/12/04 06:49:08;;;;;;;0.23;0.23;;;8.90;99.90;;;;;;4998663;28;20202;-60
2021/12/04 06:51:37;;;;;;;0.20;0.20;;;8.90;99.90;;;;;;4998914;28;20237;-60
2021/12/04 06:54:07;;;;;;;0.17;0.17;;;9.00;99.90;;;;;;4998797;28;20230;-60
2021/12/04 06:56:35;;;;;;;0.30;0.30;;;9.00;99.90;;;;;;4993864;28;20321;-60
2021/12/04 06:59:06;;;;;;;0.30;0.30;;;9.10;99.90;;;;;;5001957;28;20256;-59
2021/12/04 07:01:34;;;;;;;0.60;0.60;;;9.10;99.90;;;;;;5005768;28;20209;-59
2021/12/04 07:04:00;;;;;;;0.70;0.70;;;9.10;99.90;;;;;;4998346;28;20296;-60
2021/12/04 07:06:29;;;;;;;0.50;0.50;;;9.10;99.90;;;;;;5005571;28;20233;-60
2021/12/04 07:08:57;;;;;;;0.33;0.33;;;9.20;99.90;;;;;;5001016;28;20206;-60
2021/12/04 07:11:24;;;;;;;0.20;0.20;;;9.10;99.90;;;;;;4999568;28;20513;-60
2021/12/04 07:13:51;;;;;;;0.40;0.40;;;9.10;99.90;;;;;;5006169;28;20271;-62
2021/12/04 07:16:19;;;;;;;0.30;0.30;;;9.10;99.90;;;;;;5000700;28;20284;-61
2021/12/04 07:18:46;;;;;;;0.50;0.50;;;9.20;99.90;;;;;;4996843;28;20636;-61
2021/12/04 07:21:12;;;;;;;0.40;0.40;;;9.10;99.90;;;;;;5000317;28;20242;-61
2021/12/04 07:23:41;;;;;;;0.40;0.40;;;9.20;99.90;;;;;;5001553;28;20289;-61
2021/12/04 07:26:08;;;;;;;0.43;0.43;;;9.20;99.90;;;;;;5006435;28;20226;-61
2021/12/04 07:28:36;;;;;;;0.30;0.30;;;9.20;99.90;;;;;;4997759;28;20292;-60
2021/12/04 07:31:03;;;;;;;0.20;0.20;;;9.30;99.90;;;;;;4996954;28;20582;-60
2021/12/04 07:33:30;;;;;;;0.30;0.30;;;9.30;99.90;;;;;;4997120;28;20310;-60
2021/12/04 07:35:58;;;;;;;0.30;0.30;;;9.30;99.90;;;;;;4997819;28;20197;-62
2021/12/04 07:38:25;;;;;;;0.40;0.40;;;9.30;99.90;;;;;;5002938;28;20214;-61
2021/12/04 07:40:53;;;;;;;0.20;0.20;;;9.40;99.90;;;;;;4995463;28;20202;-62
2021/12/04 07:43:20;;;;;;;0.30;0.30;;;9.40;99.90;;;;;;5000106;28;20202;-62
2021/12/04 07:45:47;;;;;;;0.27;0.27;;;9.40;99.90;;;;;;4997237;28;20284;-60
2021/12/04 07:48:14;;;;;;;0.17;0.17;;;9.50;99.90;;;;;;4993582;28;20297;-60
2021/12/04 07:50:41;;;;;;;0.13;0.13;;;9.40;99.90;;;;;;5003937;28;20756;-61
2021/12/04 07:53:08;;;;;;;0.20;0.20;;;9.50;99.90;;;;;;5007094;28;20312;-60
2021/12/04 07:55:35;;;;;;;0.37;0.37;;;9.50;99.90;;;;;;5001506;28;20692;-61
2021/12/04 07:58:03;;;;;;;0.20;0.20;;;9.60;99.90;;;;;;5007029;28;20235;-60
2021/12/04 08:00:31;;;;;;;0.20;0.20;;;9.60;99.90;;;;;;5002334;28;20218;-62
2021/12/04 08:02:58;;;;;;;0.20;0.20;;;9.60;99.90;;;;;;4996674;28;20727;-60
2021/12/04 08:05:25;;;;;;;0.20;0.20;;;9.60;99.90;;;;;;4995916;28;20244;-60
2021/12/04 08:07:52;;;;;;;0.10;0.10;;;9.60;99.90;;;;;;5008968;28;20765;-60
2021/12/04 08:10:20;;;;;;;0.33;0.33;;;9.70;99.90;;;;;;5001752;28;20285;-60
2021/12/04 08:12:47;;;;;;;0.47;0.47;;;9.70;99.90;;;;;;5004509;28;20228;-61
2021/12/04 08:15:17;;;;;;;0.30;0.30;;;9.70;99.90;;;;;;5000364;28;20304;-62
2021/12/04 08:17:45;;;;;;;0.20;0.20;;;9.80;99.90;;;;;;5006336;28;20264;-61
2021/12/04 08:20:13;;;;;;;0.23;0.23;;;9.70;99.90;;;;;;5003505;28;20210;-60
2021/12/04 08:22:41;;;;;;;0.30;0.30;;;9.80;99.90;;;;;;4990958;28;20199;-60
2021/12/04 08:25:11;;;;;;;0.20;0.20;;;9.80;99.90;;;;;;4982909;28;20214;-60
2021/12/04 08:27:38;;;;;;;0.13;0.13;;;9.90;99.90;;;;;;4986741;28;20261;-59
2021/12/04 08:30:08;;;;;;;0.27;0.27;;;9.90;99.90;;;;;;4982816;28;20293;-60
2021/12/04 08:32:37;;;;;;;0.30;0.30;;;10.00;99.90;;;;;;4987637;28;20202;-60
2021/12/04 08:35:04;;;;;;;0.23;0.23;;;9.90;99.90;;;;;;4983964;28;20294;-60
2021/12/04 08:37:31;;;;;;;0.17;0.17;;;10.00;99.90;;;;;;4996544;28;20226;-61
2021/12/04 08:39:58;;;;;;;0.20;0.20;;;10.00;99.90;;;;;;4996793;28;20273;-60
2021/12/04 08:42:26;;;;;;;0.30;0.30;;;10.10;99.90;;;;;;4993904;28;20209;-59
2021/12/04 08:44:53;;;;;;;0.20;0.20;;;10.10;99.90;;;;;;5001658;28;20296;-60
2021/12/04 08:47:21;;;;;;;0.30;0.30;;;10.20;99.90;;;;;;4998069;28;20264;-59
2021/12/04 08:49:49;;;;;;;0.30;0.30;;;10.20;99.90;;;;;;5001903;28;20668;-61
2021/12/04 08:52:18;;;;;;;0.30;0.30;;;10.20;99.90;;;;;;5008462;28;20270;-59
2021/12/04 08:54:46;;;;;;;0.40;0.40;;;10.20;99.90;;;;;;5010218;28;20719;-61
2021/12/04 08:57:13;;;;;;;0.60;0.60;;;10.20;99.90;;;;;;4997420;28;20249;-60
2021/12/04 08:59:41;;;;;;;0.20;0.20;;;10.20;99.90;;;;;;5010279;28;20568;-59
2021/12/04 09:02:08;;;;;;;0.20;0.20;;;10.30;99.90;;;;;;5008409;28;20304;-60
2021/12/04 09:04:36;;;;;;;0.27;0.27;;;10.40;99.90;;;;;;5003630;28;20241;-60
2021/12/04 09:07:07;;;;;;;0.27;0.27;;;10.30;99.90;;;;;;5008002;28;20305;-61
2021/12/04 09:09:34;;;;;;;0.37;0.37;;;10.40;99.90;;;;;;5004206;28;20297;-62
2021/12/04 09:12:05;;;;;;;0.37;0.37;;;10.40;99.90;;;;;;4999333;28;20210;-62
2021/12/04 09:14:34;;;;;;;0.40;0.40;;;10.40;99.90;;;;;;4999559;28;20316;-60
2021/12/04 09:17:05;;;;;;;0.40;0.40;;;10.40;99.90;;;;;;4991708;28;20248;-60
2021/12/04 09:19:33;;;;;;;0.50;0.50;;;10.50;99.90;;;;;;5002168;28;20263;-60
2021/12/04 09:22:00;;;;;;;0.50;0.50;;;10.40;99.90;;;;;;4998559;28;20293;-60
2021/12/04 09:24:29;;;;;;;0.33;0.33;;;10.50;99.90;;;;;;4993967;28;20294;-62
2021/12/04 09:27:04;;;;;;;0.50;0.50;;;10.50;99.90;;;;;;5010321;28;20221;-60
2021/12/04 09:32:44;;;;;;;0.40;0.40;;;10.50;99.90;;;;;;4988704;28;20202;-60
2021/12/04 10:00:18;;;;;;;0.30;0.30;;;11.00;99.90;;;;;;4990253;28;20281;-60
2021/12/04 10:03:20;;;;;;;0.40;0.40;;;11.10;99.90;;;;;;4988236;28;20685;-60
2021/12/04 10:06:14;;;;;;;0.27;0.27;;;11.20;99.90;;;;;;4991168;28;20234;-61
2021/12/04 10:14:45;;;;;;;0.30;0.30;;;11.20;99.90;;;;;;4997047;28;20216;-60
2021/12/04 10:17:33;;;;;;;0.30;0.30;;;11.30;99.90;;;;;;4992042;28;20271;-59
2021/12/04 10:20:16;;;;;;;0.30;0.30;;;11.30;99.90;;;;;;4992744;28;20205;-59
2021/12/04 10:23:02;;;;;;;0.10;0.10;;;11.30;99.90;;;;;;4979362;28;20202;-61
2021/12/04 10:33:48;;;;;;;0.20;0.20;;;11.30;99.90;;;;;;4984046;28;20233;-61
2021/12/04 10:36:27;;;;;;;0.20;0.20;;;11.30;99.90;;;;;;4989597;28;20254;-59
2021/12/04 10:38:54;;;;;;;0.20;0.20;;;11.20;99.90;;;;;;5000333;28;20728;-59
2021/12/04 10:41:29;;;;;;;0.10;0.10;;;11.30;99.90;;;;;;4984661;28;20202;-60
2021/12/04 10:43:56;;;;;;;0.20;0.20;;;11.30;99.90;;;;;;4981296;28;20202;-59
2021/12/04 10:46:25;;;;;;;0.30;0.30;;;11.30;99.90;;;;;;4975947;28;20642;-59
2021/12/04 10:49:02;;;;;;;0.13;0.13;;;11.30;99.90;;;;;;4986900;28;20253;-61
2021/12/04 10:51:45;;;;;;;0.20;0.20;;;11.30;99.90;;;;;;4986348;28;20206;-61
2021/12/04 10:54:23;;;;;;;0.10;0.10;;;11.30;99.90;;;;;;4989443;28;20220;-60
2021/12/04 10:57:03;;;;;;;0.30;0.30;;;11.30;99.90;;;;;;4991635;28;20226;-61
2021/12/04 10:59:45;;;;;;;0.30;0.30;;;11.30;99.90;;;;;;4993087;28;20256;-59
2021/12/04 11:02:20;;;;;;;0.20;0.20;;;11.30;99.90;;;;;;4981008;28;20210;-59
2021/12/04 11:04:50;;;;;;;0.40;0.40;;;11.30;99.90;;;;;;4988812;28;20284;-61
2021/12/04 11:19:00;;;;;;;0.50;0.50;;;11.20;99.90;;;;;;4987265;28;20258;-62
2021/12/04 11:21:46;;;;;;;0.37;0.37;;;11.30;99.90;;;;;;4987355;28;20225;-61
2021/12/04 11:24:37;;;;;;;0.27;0.27;;;11.30;99.90;;;;;;4997678;28;20197;-61
2021/12/04 11:38:18;;;;;;;0.10;0.10;;;11.50;99.90;;;;;;4990181;28;20229;-61
2021/12/04 11:43:36;;;;;;;0.20;0.20;;;11.50;99.90;;;;;;4985494;28;20202;-61
2021/12/04 11:46:17;;;;;;;0.20;0.20;;;11.50;99.90;;;;;;4988434;28;20233;-61
2021/12/04 11:48:43;;;;;;;0.20;0.20;;;11.50;99.90;;;;;;4994985;28;20202;-61
2021/12/04 11:51:18;;;;;;;0.10;0.10;;;11.50;99.90;;;;;;4997407;28;20198;-62
2021/12/04 11:53:45;;;;;;;0.20;0.20;;;11.50;99.90;;;;;;4993776;28;20710;-61
2021/12/04 11:56:17;;;;;;;0.20;0.20;;;11.50;99.90;;;;;;5005520;28;20293;-61
2021/12/04 11:58:46;;;;;;;0.20;0.20;;;11.50;99.90;;;;;;4996939;28;20648;-59
2021/12/04 12:01:28;;;;;;;0.20;0.20;;;11.50;99.90;;;;;;4994967;28;20284;-60
2021/12/04 12:03:57;;;;;;;0.40;0.40;;;11.50;99.90;;;;;;4993057;28;20202;-61
2021/12/04 12:06:35;;;;;;;0.30;0.30;;;11.50;99.90;;;;;;4989767;28;20237;-60
2021/12/04 12:09:10;;;;;;;0.20;0.20;;;11.50;99.90;;;;;;4990684;28;20198;-60
2021/12/04 12:11:37;;;;;;;0.40;0.40;;;11.50;99.90;;;;;;5004406;28;20240;-59
2021/12/04 12:14:10;;;;;;;0.20;0.20;;;11.50;99.90;;;;;;5001261;28;20218;-60
2021/12/04 12:16:41;;;;;;;0.20;0.20;;;11.40;99.90;;;;;;5001148;28;20226;-62
2021/12/04 12:19:13;;;;;;;0.27;0.27;;;11.40;99.90;;;;;;5003763;28;20209;-59
2021/12/04 12:21:51;;;;;;;0.40;0.40;;;11.40;99.90;;;;;;5005396;28;20260;-59
2021/12/04 12:27:32;;;;;;;0.20;0.20;;;11.30;99.90;;;;;;4998615;28;20283;-61
2021/12/04 12:33:07;;;;;;;0.27;0.27;;;11.30;99.90;;;;;;5006510;28;20291;-61
2021/12/04 12:38:41;;;;;;;0.30;0.30;;;11.20;99.90;;;;;;4998463;28;20440;-61
2021/12/04 12:41:17;;;;;;;0.10;0.10;;;11.20;99.90;;;;;;4992108;28;20392;-60
2021/12/04 12:43:53;;;;;;;0.40;0.40;;;11.30;99.90;;;;;;4992299;28;20653;-59
2021/12/04 12:46:20;;;;;;;0.20;0.20;;;11.20;99.90;;;;;;4998610;28;20347;-60
2021/12/04 12:48:50;;;;;;;0.20;0.20;;;11.20;99.90;;;;;;4999739;28;20297;-62
2021/12/04 12:51:25;;;;;;;0.10;0.10;;;11.20;99.90;;;;;;5006403;28;20237;-60
2021/12/04 12:53:54;;;;;;;0.20;0.20;;;11.20;99.90;;;;;;4997759;28;20219;-60
2021/12/04 12:56:25;;;;;;;0.30;0.30;;;11.20;99.90;;;;;;4987196;28;20701;-63
2021/12/04 12:58:56;;;;;;;0.40;0.40;;;11.20;99.90;;;;;;4995042;28;20621;-62
2021/12/04 13:12:49;;;;;;;0.30;0.30;;;11.20;99.90;;;;;;4984549;28;20211;-62
2021/12/04 13:15:29;;;;;;;0.27;0.27;;;11.20;99.90;;;;;;4981035;28;20214;-61
2021/12/04 13:17:56;;;;;;;0.20;0.20;;;11.20;99.90;;;;;;4981440;28;20647;-62
2021/12/04 13:20:23;;;;;;;0.17;0.17;;;11.30;99.90;;;;;;4982858;28;20207;-61
2021/12/04 13:22:50;;;;;;;0.30;0.30;;;11.30;99.90;;;;;;4986234;28;20220;-60
2021/12/04 13:25:18;;;;;;;0.30;0.30;;;11.30;99.90;;;;;;4981259;28;20207;-61
2021/12/04 13:30:16;;;;;;;0.30;0.30;;;11.40;99.90;;;;;;4975672;28;20297;-60
2021/12/04 13:32:45;;;;;;;0.30;0.30;;;11.40;99.90;;;;;;4980375;28;20237;-61
2021/12/04 13:35:15;;;;;;;0.40;0.40;;;11.30;99.90;;;;;;4983703;28;20217;-60
2021/12/04 13:37:43;;;;;;;0.33;0.33;;;11.40;99.90;;;;;;4986185;28;20226;-60
2021/12/04 13:40:13;;;;;;;0.20;0.20;;;11.40;99.90;;;;;;4990205;28;20703;-60
2021/12/04 13:42:41;;;;;;;0.30;0.30;;;11.40;99.90;;;;;;4988636;28;20222;-59
2021/12/04 13:45:12;;;;;;;0.20;0.20;;;11.30;99.90;;;;;;4984014;28;20206;-59
2021/12/04 13:47:40;;;;;;;0.20;0.20;;;11.40;99.90;;;;;;4983996;28;20989;-60
2021/12/04 13:52:50;;;;;;;0.10;0.10;;;11.40;99.90;;;;;;4985947;28;20197;-60
2021/12/04 13:55:18;;;;;;;0.20;0.20;;;11.40;99.90;;;;;;4983758;28;20258;-59
2021/12/04 13:57:47;;;;;;;0.20;0.20;;;11.40;99.90;;;;;;4993074;28;20305;-61
2021/12/04 14:00:16;;;;;;;0.23;0.23;;;11.40;99.90;;;;;;4995142;28;20214;-61
2021/12/04 14:02:44;;;;;;;0.30;0.30;;;11.40;99.90;;;;;;4982838;28;20244;-61
2021/12/04 14:05:14;;;;;;;0.20;0.20;;;11.50;99.90;;;;;;4986656;28;20221;-61
2021/12/04 14:07:47;;;;;;;0.50;0.50;;;11.50;99.90;;;;;;4984850;28;20249;-60
2021/12/04 14:10:17;;;;;;;0.10;0.10;;;11.50;99.90;;;;;;4994983;28;20210;-58
2021/12/04 14:12:46;;;;;;;0.20;0.20;;;11.50;99.90;;;;;;4990848;28;20305;-61
2021/12/04 14:15:16;;;;;;;1.00;1.00;;;11.50;99.90;;;;;;4988992;28;20265;-61
2021/12/04 14:17:43;;;;;;;0.80;0.80;;;11.50;99.90;;;;;;4985184;28;20250;-59
2021/12/04 14:20:14;;;;;;;0.20;0.20;;;11.40;99.90;;;;;;5001024;28;20241;-60
2021/12/04 14:22:47;;;;;;;0.37;0.37;;;11.40;99.90;;;;;;4991008;28;20202;-62
2021/12/04 14:25:14;;;;;;;0.30;0.30;;;11.40;99.90;;;;;;4998399;28;20201;-60
2021/12/04 14:27:41;;;;;;;0.20;0.20;;;11.40;99.90;;;;;;4996122;28;20233;-60
2021/12/04 14:30:13;;;;;;;0.17;0.17;;;11.40;99.90;;;;;;5005377;28;20217;-61
2021/12/04 14:32:43;;;;;;;0.20;0.20;;;11.40;99.90;;;;;;5006136;28;20236;-60
2021/12/04 14:35:14;;;;;;;0.20;0.20;;;11.40;99.90;;;;;;4996161;28;20276;-59
2021/12/04 14:37:42;;;;;;;0.10;0.10;;;11.40;99.90;;;;;;4996800;28;20229;-59
2021/12/04 14:40:12;;;;;;;0.23;0.23;;;11.40;99.90;;;;;;4990985;28;20229;-60
2021/12/04 14:42:39;;;;;;;0.10;0.10;;;11.40;99.90;;;;;;4992648;28;20235;-60
2021/12/04 14:45:11;;;;;;;0.30;0.30;;;11.40;99.90;;;;;;5001110;28;20225;-59
2021/12/04 14:47:46;;;;;;;0.50;0.50;;;11.40;99.90;;;;;;5000155;28;20230;-60
2021/12/04 14:50:17;;;;;;;0.30;0.30;;;11.40;99.90;;;;;;4998153;28;20268;-61
2021/12/04 14:52:50;;;;;;;0.37;0.37;;;11.40;99.90;;;;;;4995583;28;20256;-60
2021/12/04 14:55:20;;;;;;;0.30;0.30;;;11.40;99.90;;;;;;4989364;28;20716;-60
2021/12/04 14:57:48;;;;;;;0.30;0.30;;;11.40;99.90;;;;;;4988217;28;20784;-60
2021/12/04 15:00:19;;;;;;;0.37;0.37;;;11.40;99.90;;;;;;4988041;28;20198;-61
2021/12/04 15:02:51;;;;;;;0.40;0.40;;;11.40;99.90;;;;;;4990309;28;20207;-60
2021/12/04 15:05:30;;;;;;;0.30;0.30;;;11.40;99.90;;;;;;4980580;28;20202;-61
2021/12/04 15:08:07;;;;;;;0.47;0.47;;;11.40;99.90;;;;;;4987012;28;20224;-61
2021/12/04 15:10:35;;;;;;;0.30;0.30;;;11.50;99.90;;;;;;4989856;28;20256;-59
2021/12/04 15:13:03;;;;;;;0.37;0.37;;;11.50;99.90;;;;;;4981525;28;20289;-60
2021/12/04 15:15:35;;;;;;;0.30;0.30;;;11.50;99.90;;;;;;4986734;28;20219;-60
2021/12/04 15:18:06;;;;;;;0.30;0.30;;;11.50;99.90;;;;;;4982273;28;20229;-62
2021/12/04 15:20:34;;;;;;;0.30;0.30;;;11.50;99.90;;;;;;4984020;28;20230;-62
2021/12/04 15:23:07;;;;;;;0.40;0.40;;;11.50;99.90;;;;;;4983816;28;20688;-60
2021/12/04 15:25:36;;;;;;;0.30;0.30;;;11.50;99.90;;;;;;4982842;28;20719;-61